sensor_id;sensor_type;location;lat;lon;timestamp;temperature;humidity
22383;DHT22;11359;45.802;13.530;2023-02-22T00:01:27;16.50;51.20
22383;DHT22;11359;45.802;13.530;2023-02-22T00:04:03;16.50;51.20
22383;DHT22;11359;45.802;13.530;2023-02-22T00:06:29;16.40;51.20
22383;DHT22;11359;45.802;13.530;2023-02-22T00:08:56;16.40;51.20
22383;DHT22;11359;45.802;13.530;2023-02-22T00:11:22;16.40;51.30
22383;DHT22;11359;45.802;13.530;2023-02-22T00:13:48;16.40;51.40
22383;DHT22;11359;45.802;13.530;2023-02-22T00:16:20;16.40;51.50
22383;DHT22;11359;45.802;13.530;2023-02-22T00:18:46;16.30;51.50
22383;DHT22;11359;45.802;13.530;2023-02-22T00:21:13;16.30;51.50
22383;DHT22;11359;45.802;13.530;2023-02-22T00:23:44;16.30;51.60
22383;DHT22;11359;45.802;13.530;2023-02-22T00:26:16;16.30;51.70
22383;DHT22;11359;45.802;13.530;2023-02-22T00:28:45;16.30;51.70
22383;DHT22;11359;45.802;13.530;2023-02-22T00:31:13;16.30;51.70
22383;DHT22;11359;45.802;13.530;2023-02-22T00:33:40;16.30;51.70
22383;DHT22;11359;45.802;13.530;2023-02-22T00:36:06;16.30;51.70
22383;DHT22;11359;45.802;13.530;2023-02-22T00:38:32;16.30;51.70
22383;DHT22;11359;45.802;13.530;2023-02-22T00:40:58;16.30;51.70
22383;DHT22;11359;45.802;13.530;2023-02-22T00:43:23;16.20;51.70
22383;DHT22;11359;45.802;13.530;2023-02-22T00:45:52;16.20;51.90
22383;DHT22;11359;45.802;13.530;2023-02-22T00:48:18;16.20;52.50
22383;DHT22;11359;45.802;13.530;2023-02-22T00:50:44;16.20;51.90
22383;DHT22;11359;45.802;13.530;2023-02-22T00:53:10;16.20;52.00
22383;DHT22;11359;45.802;13.530;2023-02-22T00:55:37;16.20;51.90
22383;DHT22;11359;45.802;13.530;2023-02-22T00:58:04;16.10;51.90
22383;DHT22;11359;45.802;13.530;2023-02-22T01:00:36;16.10;51.90
22383;DHT22;11359;45.802;13.530;2023-02-22T01:03:04;16.10;52.00
22383;DHT22;11359;45.802;13.530;2023-02-22T01:05:30;16.10;52.00
22383;DHT22;11359;45.802;13.530;2023-02-22T01:07:59;16.10;52.10
22383;DHT22;11359;45.802;13.530;2023-02-22T01:10:28;16.10;52.10
22383;DHT22;11359;45.802;13.530;2023-02-22T01:12:56;16.10;52.20
22383;DHT22;11359;45.802;13.530;2023-02-22T01:15:24;16.00;52.10
22383;DHT22;11359;45.802;13.530;2023-02-22T01:17:53;16.00;52.20
22383;DHT22;11359;45.802;13.530;2023-02-22T01:20:21;16.00;52.20
22383;DHT22;11359;45.802;13.530;2023-02-22T01:22:51;16.00;52.20
22383;DHT22;11359;45.802;13.530;2023-02-22T01:25:23;16.00;52.20
22383;DHT22;11359;45.802;13.530;2023-02-22T01:27:50;16.00;52.30
22383;DHT22;11359;45.802;13.530;2023-02-22T01:30:21;15.90;52.20
22383;DHT22;11359;45.802;13.530;2023-02-22T01:32:47;15.90;52.60
22383;DHT22;11359;45.802;13.530;2023-02-22T01:35:16;15.90;52.20
22383;DHT22;11359;45.802;13.530;2023-02-22T01:37:43;15.90;52.20
22383;DHT22;11359;45.802;13.530;2023-02-22T01:40:18;15.80;52.20
22383;DHT22;11359;45.802;13.530;2023-02-22T01:42:47;15.80;52.20
22383;DHT22;11359;45.802;13.530;2023-02-22T01:45:49;15.80;52.20
22383;DHT22;11359;45.802;13.530;2023-02-22T01:48:38;15.80;52.20
22383;DHT22;11359;45.802;13.530;2023-02-22T01:54:00;15.70;52.20
22383;DHT22;11359;45.802;13.530;2023-02-22T01:56:29;15.70;52.20
22383;DHT22;11359;45.802;13.530;2023-02-22T01:59:00;15.60;52.20
22383;DHT22;11359;45.802;13.530;2023-02-22T02:01:27;15.60;52.20
22383;DHT22;11359;45.802;13.530;2023-02-22T02:03:57;15.60;52.20
22383;DHT22;11359;45.802;13.530;2023-02-22T02:06:25;15.60;52.30
22383;DHT22;11359;45.802;13.530;2023-02-22T02:09:19;15.50;52.20
22383;DHT22;11359;45.802;13.530;2023-02-22T02:11:46;15.50;52.30
22383;DHT22;11359;45.802;13.530;2023-02-22T02:14:13;15.40;52.30
22383;DHT22;11359;45.802;13.530;2023-02-22T02:16:46;15.40;52.30
22383;DHT22;11359;45.802;13.530;2023-02-22T02:32:49;15.20;52.30
22383;DHT22;11359;45.802;13.530;2023-02-22T02:37:56;15.20;52.40
22383;DHT22;11359;45.802;13.530;2023-02-22T02:46:16;15.10;52.40
22383;DHT22;11359;45.802;13.530;2023-02-22T02:48:51;15.00;52.30
22383;DHT22;11359;45.802;13.530;2023-02-22T02:51:20;15.00;52.30
22383;DHT22;11359;45.802;13.530;2023-02-22T02:53:48;14.90;52.30
22383;DHT22;11359;45.802;13.530;2023-02-22T02:56:16;14.90;52.30
22383;DHT22;11359;45.802;13.530;2023-02-22T02:58:51;14.90;52.30
22383;DHT22;11359;45.802;13.530;2023-02-22T03:12:37;14.70;52.40
22383;DHT22;11359;45.802;13.530;2023-02-22T03:18:01;14.60;52.40
22383;DHT22;11359;45.802;13.530;2023-02-22T03:20:45;14.60;52.40
22383;DHT22;11359;45.802;13.530;2023-02-22T03:23:32;14.60;52.50
22383;DHT22;11359;45.802;13.530;2023-02-22T03:26:22;14.50;52.40
22383;DHT22;11359;45.802;13.530;2023-02-22T03:28:52;14.50;52.50
22383;DHT22;11359;45.802;13.530;2023-02-22T03:31:25;14.50;52.60
22383;DHT22;11359;45.802;13.530;2023-02-22T03:33:59;14.40;52.60
22383;DHT22;11359;45.802;13.530;2023-02-22T03:36:30;14.40;52.60
22383;DHT22;11359;45.802;13.530;2023-02-22T03:39:00;14.40;52.60
22383;DHT22;11359;45.802;13.530;2023-02-22T03:41:30;14.40;52.60
22383;DHT22;11359;45.802;13.530;2023-02-22T03:44:05;14.40;52.60
22383;DHT22;11359;45.802;13.530;2023-02-22T03:46:34;14.30;52.60
22383;DHT22;11359;45.802;13.530;2023-02-22T03:49:02;14.30;52.60
22383;DHT22;11359;45.802;13.530;2023-02-22T03:51:29;14.30;52.70
22383;DHT22;11359;45.802;13.530;2023-02-22T03:53:55;14.30;52.70
22383;DHT22;11359;45.802;13.530;2023-02-22T03:56:43;14.20;52.60
22383;DHT22;11359;45.802;13.530;2023-02-22T03:59:12;14.20;52.70
22383;DHT22;11359;45.802;13.530;2023-02-22T04:01:38;14.20;52.70
22383;DHT22;11359;45.802;13.530;2023-02-22T04:04:04;14.20;52.70
22383;DHT22;11359;45.802;13.530;2023-02-22T04:06:30;14.20;52.70
22383;DHT22;11359;45.802;13.530;2023-02-22T04:08:55;14.10;52.70
22383;DHT22;11359;45.802;13.530;2023-02-22T04:11:21;14.10;53.30
22383;DHT22;11359;45.802;13.530;2023-02-22T04:13:47;14.10;52.70
22383;DHT22;11359;45.802;13.530;2023-02-22T04:16:13;14.10;52.70
22383;DHT22;11359;45.802;13.530;2023-02-22T04:18:39;14.10;52.80
22383;DHT22;11359;45.802;13.530;2023-02-22T04:21:05;14.00;52.80
22383;DHT22;11359;45.802;13.530;2023-02-22T04:23:30;14.00;52.80
22383;DHT22;11359;45.802;13.530;2023-02-22T04:25:57;14.00;52.80
22383;DHT22;11359;45.802;13.530;2023-02-22T04:28:23;14.00;52.80
22383;DHT22;11359;45.802;13.530;2023-02-22T04:30:48;14.00;52.80
22383;DHT22;11359;45.802;13.530;2023-02-22T04:33:14;13.90;52.80
22383;DHT22;11359;45.802;13.530;2023-02-22T04:35:40;13.90;52.80
22383;DHT22;11359;45.802;13.530;2023-02-22T04:38:08;13.90;52.80
22383;DHT22;11359;45.802;13.530;2023-02-22T04:40:37;13.90;52.80
22383;DHT22;11359;45.802;13.530;2023-02-22T04:43:03;13.90;52.80
22383;DHT22;11359;45.802;13.530;2023-02-22T04:45:30;13.80;52.80
22383;DHT22;11359;45.802;13.530;2023-02-22T04:47:58;13.80;52.80
22383;DHT22;11359;45.802;13.530;2023-02-22T04:50:24;13.80;52.80
22383;DHT22;11359;45.802;13.530;2023-02-22T04:52:50;13.80;52.80
22383;DHT22;11359;45.802;13.530;2023-02-22T04:55:16;13.70;52.80
22383;DHT22;11359;45.802;13.530;2023-02-22T04:57:41;13.70;52.80
22383;DHT22;11359;45.802;13.530;2023-02-22T05:00:08;13.70;52.90
22383;DHT22;11359;45.802;13.530;2023-02-22T05:02:37;13.70;52.90
22383;DHT22;11359;45.802;13.530;2023-02-22T05:05:04;13.70;53.20
22383;DHT22;11359;45.802;13.530;2023-02-22T05:07:30;13.70;53.00
22383;DHT22;11359;45.802;13.530;2023-02-22T05:09:56;13.70;53.00
22383;DHT22;11359;45.802;13.530;2023-02-22T05:12:22;13.60;53.00
22383;DHT22;11359;45.802;13.530;2023-02-22T05:14:51;13.60;53.10
22383;DHT22;11359;45.802;13.530;2023-02-22T05:17:17;13.60;53.10
22383;DHT22;11359;45.802;13.530;2023-02-22T05:19:42;13.60;53.10
22383;DHT22;11359;45.802;13.530;2023-02-22T05:22:08;13.60;53.10
22383;DHT22;11359;45.802;13.530;2023-02-22T05:24:34;13.60;53.10
22383;DHT22;11359;45.802;13.530;2023-02-22T05:26:59;13.60;53.10
22383;DHT22;11359;45.802;13.530;2023-02-22T05:29:25;13.60;53.10
22383;DHT22;11359;45.802;13.530;2023-02-22T05:31:51;13.50;53.00
22383;DHT22;11359;45.802;13.530;2023-02-22T05:34:17;13.50;53.10
22383;DHT22;11359;45.802;13.530;2023-02-22T05:36:42;13.50;53.10
22383;DHT22;11359;45.802;13.530;2023-02-22T05:39:08;13.50;53.10
22383;DHT22;11359;45.802;13.530;2023-02-22T05:41:34;13.40;53.00
22383;DHT22;11359;45.802;13.530;2023-02-22T05:43:59;13.50;53.10
22383;DHT22;11359;45.802;13.530;2023-02-22T05:46:27;13.50;53.10
22383;DHT22;11359;45.802;13.530;2023-02-22T05:48:53;13.40;53.00
22383;DHT22;11359;45.802;13.530;2023-02-22T05:51:18;13.40;53.00
22383;DHT22;11359;45.802;13.530;2023-02-22T05:53:44;13.40;53.00
22383;DHT22;11359;45.802;13.530;2023-02-22T05:56:10;13.30;53.00
22383;DHT22;11359;45.802;13.530;2023-02-22T05:58:35;13.30;53.00
22383;DHT22;11359;45.802;13.530;2023-02-22T06:01:01;13.30;53.00
22383;DHT22;11359;45.802;13.530;2023-02-22T06:03:26;13.30;53.00
22383;DHT22;11359;45.802;13.530;2023-02-22T06:05:52;13.30;53.10
22383;DHT22;11359;45.802;13.530;2023-02-22T06:08:18;13.30;53.00
22383;DHT22;11359;45.802;13.530;2023-02-22T06:10:44;13.20;53.00
22383;DHT22;11359;45.802;13.530;2023-02-22T06:13:09;13.20;53.00
22383;DHT22;11359;45.802;13.530;2023-02-22T06:15:35;13.20;53.00
22383;DHT22;11359;45.802;13.530;2023-02-22T06:18:01;13.20;53.10
22383;DHT22;11359;45.802;13.530;2023-02-22T06:20:28;13.20;53.10
22383;DHT22;11359;45.802;13.530;2023-02-22T06:22:55;13.10;53.00
22383;DHT22;11359;45.802;13.530;2023-02-22T06:25:24;13.10;53.00
22383;DHT22;11359;45.802;13.530;2023-02-22T06:27:50;13.10;53.00
22383;DHT22;11359;45.802;13.530;2023-02-22T06:30:19;13.10;53.10
22383;DHT22;11359;45.802;13.530;2023-02-22T06:32:45;13.10;53.10
22383;DHT22;11359;45.802;13.530;2023-02-22T06:35:11;13.00;53.10
22383;DHT22;11359;45.802;13.530;2023-02-22T06:37:38;13.00;53.10
22383;DHT22;11359;45.802;13.530;2023-02-22T06:40:04;13.00;53.40
22383;DHT22;11359;45.802;13.530;2023-02-22T06:42:30;13.00;53.20
22383;DHT22;11359;45.802;13.530;2023-02-22T06:44:55;13.00;53.20
22383;DHT22;11359;45.802;13.530;2023-02-22T06:47:22;13.00;53.30
22383;DHT22;11359;45.802;13.530;2023-02-22T06:49:55;13.00;53.30
22383;DHT22;11359;45.802;13.530;2023-02-22T06:52:21;13.00;53.30
22383;DHT22;11359;45.802;13.530;2023-02-22T06:54:48;13.00;53.30
22383;DHT22;11359;45.802;13.530;2023-02-22T06:57:14;13.00;53.30
22383;DHT22;11359;45.802;13.530;2023-02-22T06:59:40;13.00;53.40
22383;DHT22;11359;45.802;13.530;2023-02-22T07:02:05;13.00;53.40
22383;DHT22;11359;45.802;13.530;2023-02-22T07:04:31;13.00;53.50
22383;DHT22;11359;45.802;13.530;2023-02-22T07:06:57;13.00;53.50
22383;DHT22;11359;45.802;13.530;2023-02-22T07:09:23;13.00;53.50
22383;DHT22;11359;45.802;13.530;2023-02-22T07:11:49;13.00;53.60
22383;DHT22;11359;45.802;13.530;2023-02-22T07:14:16;13.00;53.60
22383;DHT22;11359;45.802;13.530;2023-02-22T07:16:42;13.00;53.60
22383;DHT22;11359;45.802;13.530;2023-02-22T07:19:07;13.10;53.70
22383;DHT22;11359;45.802;13.530;2023-02-22T07:21:33;13.10;53.70
22383;DHT22;11359;45.802;13.530;2023-02-22T07:23:59;13.10;53.70
22383;DHT22;11359;45.802;13.530;2023-02-22T07:26:25;13.10;53.70
22383;DHT22;11359;45.802;13.530;2023-02-22T07:28:52;13.10;53.80
22383;DHT22;11359;45.802;13.530;2023-02-22T07:31:18;13.20;53.90
22383;DHT22;11359;45.802;13.530;2023-02-22T07:33:47;13.20;53.90
22383;DHT22;11359;45.802;13.530;2023-02-22T07:36:13;13.20;53.90
22383;DHT22;11359;45.802;13.530;2023-02-22T07:38:45;13.20;53.90
22383;DHT22;11359;45.802;13.530;2023-02-22T07:41:11;13.20;53.90
22383;DHT22;11359;45.802;13.530;2023-02-22T07:43:37;13.20;53.90
22383;DHT22;11359;45.802;13.530;2023-02-22T07:46:03;13.20;53.90
22383;DHT22;11359;45.802;13.530;2023-02-22T07:48:30;13.20;53.90
22383;DHT22;11359;45.802;13.530;2023-02-22T07:50:57;13.30;54.00
22383;DHT22;11359;45.802;13.530;2023-02-22T07:53:26;13.30;54.00
22383;DHT22;11359;45.802;13.530;2023-02-22T07:55:56;13.30;54.70
22383;DHT22;11359;45.802;13.530;2023-02-22T07:58:23;13.30;54.00
22383;DHT22;11359;45.802;13.530;2023-02-22T08:00:49;13.30;54.00
22383;DHT22;11359;45.802;13.530;2023-02-22T08:03:17;13.30;54.10
22383;DHT22;11359;45.802;13.530;2023-02-22T08:05:49;13.40;54.10
22383;DHT22;11359;45.802;13.530;2023-02-22T08:08:15;13.40;54.10
22383;DHT22;11359;45.802;13.530;2023-02-22T08:10:42;13.40;54.20
22383;DHT22;11359;45.802;13.530;2023-02-22T08:13:08;13.40;54.20
22383;DHT22;11359;45.802;13.530;2023-02-22T08:15:36;13.40;54.30
22383;DHT22;11359;45.802;13.530;2023-02-22T08:18:12;13.50;54.30
22383;DHT22;11359;45.802;13.530;2023-02-22T08:20:40;13.40;54.30
22383;DHT22;11359;45.802;13.530;2023-02-22T08:23:07;13.50;54.40
22383;DHT22;11359;45.802;13.530;2023-02-22T08:25:34;13.50;54.40
22383;DHT22;11359;45.802;13.530;2023-02-22T08:28:05;13.50;54.40
22383;DHT22;11359;45.802;13.530;2023-02-22T08:30:33;13.60;54.50
22383;DHT22;11359;45.802;13.530;2023-02-22T08:33:00;13.60;54.50
22383;DHT22;11359;45.802;13.530;2023-02-22T08:35:28;13.60;54.60
22383;DHT22;11359;45.802;13.530;2023-02-22T08:37:57;13.70;54.60
22383;DHT22;11359;45.802;13.530;2023-02-22T08:40:25;13.70;54.60
22383;DHT22;11359;45.802;13.530;2023-02-22T08:42:55;13.70;54.60
22383;DHT22;11359;45.802;13.530;2023-02-22T08:45:21;13.80;54.70
22383;DHT22;11359;45.802;13.530;2023-02-22T08:47:47;13.80;54.60
22383;DHT22;11359;45.802;13.530;2023-02-22T08:50:21;13.90;54.60
22383;DHT22;11359;45.802;13.530;2023-02-22T08:52:49;13.90;54.70
22383;DHT22;11359;45.802;13.530;2023-02-22T08:55:22;13.90;54.60
22383;DHT22;11359;45.802;13.530;2023-02-22T08:57:48;14.00;54.60
22383;DHT22;11359;45.802;13.530;2023-02-22T09:00:16;14.00;54.60
22383;DHT22;11359;45.802;13.530;2023-02-22T09:02:43;14.00;54.60
22383;DHT22;11359;45.802;13.530;2023-02-22T09:05:08;14.10;54.60
22383;DHT22;11359;45.802;13.530;2023-02-22T09:07:34;14.10;54.60
22383;DHT22;11359;45.802;13.530;2023-02-22T09:10:00;14.10;54.60
22383;DHT22;11359;45.802;13.530;2023-02-22T09:12:26;14.10;54.60
22383;DHT22;11359;45.802;13.530;2023-02-22T09:14:52;14.20;54.60
22383;DHT22;11359;45.802;13.530;2023-02-22T09:17:18;14.20;54.60
22383;DHT22;11359;45.802;13.530;2023-02-22T09:19:43;14.20;54.60
22383;DHT22;11359;45.802;13.530;2023-02-22T09:22:10;14.20;54.60
22383;DHT22;11359;45.802;13.530;2023-02-22T09:24:35;14.30;54.60
22383;DHT22;11359;45.802;13.530;2023-02-22T09:27:01;14.30;54.60
22383;DHT22;11359;45.802;13.530;2023-02-22T09:29:29;14.40;54.70
22383;DHT22;11359;45.802;13.530;2023-02-22T09:31:55;14.40;54.70
22383;DHT22;11359;45.802;13.530;2023-02-22T09:34:22;14.40;54.70
22383;DHT22;11359;45.802;13.530;2023-02-22T09:36:55;14.50;54.70
22383;DHT22;11359;45.802;13.530;2023-02-22T09:39:24;14.50;54.70
22383;DHT22;11359;45.802;13.530;2023-02-22T09:44:34;14.60;54.70
22383;DHT22;11359;45.802;13.530;2023-02-22T09:47:02;14.70;54.70
22383;DHT22;11359;45.802;13.530;2023-02-22T09:49:40;14.70;54.70
22383;DHT22;11359;45.802;13.530;2023-02-22T09:52:27;14.70;54.70
22383;DHT22;11359;45.802;13.530;2023-02-22T09:57:44;14.80;54.80
22383;DHT22;11359;45.802;13.530;2023-02-22T10:00:20;14.80;54.80
22383;DHT22;11359;45.802;13.530;2023-02-22T10:03:16;14.80;54.80
22383;DHT22;11359;45.802;13.530;2023-02-22T10:06:09;14.90;54.90
22383;DHT22;11359;45.802;13.530;2023-02-22T10:08:36;14.90;54.90
22383;DHT22;11359;45.802;13.530;2023-02-22T10:11:34;14.90;54.80
22383;DHT22;11359;45.802;13.530;2023-02-22T10:16:39;15.00;54.80
22383;DHT22;11359;45.802;13.530;2023-02-22T10:32:44;15.10;54.90
22383;DHT22;11359;45.802;13.530;2023-02-22T10:35:38;15.10;54.90
22383;DHT22;11359;45.802;13.530;2023-02-22T10:38:24;15.10;54.90
22383;DHT22;11359;45.802;13.530;2023-02-22T10:40:55;15.20;55.00
22383;DHT22;11359;45.802;13.530;2023-02-22T10:43:24;15.20;55.10
22383;DHT22;11359;45.802;13.530;2023-02-22T10:45:56;15.20;55.10
22383;DHT22;11359;45.802;13.530;2023-02-22T10:48:25;15.20;55.20
22383;DHT22;11359;45.802;13.530;2023-02-22T10:50:58;15.30;55.30
22383;DHT22;11359;45.802;13.530;2023-02-22T10:53:25;15.30;55.30
22383;DHT22;11359;45.802;13.530;2023-02-22T10:56:08;15.40;55.40
22383;DHT22;11359;45.802;13.530;2023-02-22T11:01:23;15.50;55.50
22383;DHT22;11359;45.802;13.530;2023-02-22T11:06:38;15.60;55.40
22383;DHT22;11359;45.802;13.530;2023-02-22T11:09:14;15.60;55.30
22383;DHT22;11359;45.802;13.530;2023-02-22T11:11:46;15.70;55.30
22383;DHT22;11359;45.802;13.530;2023-02-22T11:14:27;15.70;55.30
22383;DHT22;11359;45.802;13.530;2023-02-22T11:16:54;15.80;55.40
22383;DHT22;11359;45.802;13.530;2023-02-22T11:19:30;15.80;55.30
22383;DHT22;11359;45.802;13.530;2023-02-22T11:22:59;15.90;55.30
22383;DHT22;11359;45.802;13.530;2023-02-22T11:25:02;15.90;55.30
22383;DHT22;11359;45.802;13.530;2023-02-22T11:27:39;16.00;55.30
22383;DHT22;11359;45.802;13.530;2023-02-22T11:30:27;16.00;55.20
22383;DHT22;11359;45.802;13.530;2023-02-22T11:33:15;16.10;55.20
22383;DHT22;11359;45.802;13.530;2023-02-22T11:35:55;16.10;55.10
22383;DHT22;11359;45.802;13.530;2023-02-22T11:38:24;16.10;55.10
22383;DHT22;11359;45.802;13.530;2023-02-22T11:41:17;16.10;55.10
22383;DHT22;11359;45.802;13.530;2023-02-22T11:43:46;16.20;55.10
22383;DHT22;11359;45.802;13.530;2023-02-22T11:46:20;16.20;55.10
22383;DHT22;11359;45.802;13.530;2023-02-22T11:49:08;16.20;55.00
22383;DHT22;11359;45.802;13.530;2023-02-22T11:54:15;16.20;55.00
22383;DHT22;11359;45.802;13.530;2023-02-22T11:57:20;16.30;55.10
22383;DHT22;11359;45.802;13.530;2023-02-22T12:03:27;16.30;55.10
22383;DHT22;11359;45.802;13.530;2023-02-22T12:11:54;16.30;55.00
22383;DHT22;11359;45.802;13.530;2023-02-22T12:20:03;16.40;55.00
22383;DHT22;11359;45.802;13.530;2023-02-22T12:22:37;16.30;55.00
22383;DHT22;11359;45.802;13.530;2023-02-22T12:28:20;16.40;55.00
22383;DHT22;11359;45.802;13.530;2023-02-22T12:30:53;16.40;55.10
22383;DHT22;11359;45.802;13.530;2023-02-22T12:33:24;16.40;55.10
22383;DHT22;11359;45.802;13.530;2023-02-22T12:35:54;16.40;55.00
22383;DHT22;11359;45.802;13.530;2023-02-22T12:38:32;16.40;55.00
22383;DHT22;11359;45.802;13.530;2023-02-22T12:41:36;16.40;55.10
22383;DHT22;11359;45.802;13.530;2023-02-22T12:44:09;16.40;55.10
22383;DHT22;11359;45.802;13.530;2023-02-22T12:46:49;16.50;55.20
22383;DHT22;11359;45.802;13.530;2023-02-22T12:49:35;16.50;55.30
22383;DHT22;11359;45.802;13.530;2023-02-22T13:00:05;16.60;55.20
22383;DHT22;11359;45.802;13.530;2023-02-22T13:02:42;16.60;55.20
22383;DHT22;11359;45.802;13.530;2023-02-22T13:05:16;16.60;55.20
22383;DHT22;11359;45.802;13.530;2023-02-22T13:08:05;16.60;55.20
22383;DHT22;11359;45.802;13.530;2023-02-22T13:11:03;16.70;55.20
22383;DHT22;11359;45.802;13.530;2023-02-22T13:30:12;16.80;55.10
22383;DHT22;11359;45.802;13.530;2023-02-22T13:32:52;16.80;55.00
22383;DHT22;11359;45.802;13.530;2023-02-22T13:39:00;16.90;55.00
22383;DHT22;11359;45.802;13.530;2023-02-22T13:44:08;16.90;54.90
22383;DHT22;11359;45.802;13.530;2023-02-22T13:52:21;16.90;55.00
22383;DHT22;11359;45.802;13.530;2023-02-22T13:55:15;17.00;55.00
22383;DHT22;11359;45.802;13.530;2023-02-22T13:57:47;17.00;55.00
22383;DHT22;11359;45.802;13.530;2023-02-22T14:10:54;17.10;54.90
22383;DHT22;11359;45.802;13.530;2023-02-22T14:13:28;17.10;54.80
22383;DHT22;11359;45.802;13.530;2023-02-22T14:18:35;17.20;54.90
22383;DHT22;11359;45.802;13.530;2023-02-22T14:21:14;17.20;54.80
22383;DHT22;11359;45.802;13.530;2023-02-22T14:23:47;17.20;54.90
22383;DHT22;11359;45.802;13.530;2023-02-22T14:26:26;17.20;54.90
22383;DHT22;11359;45.802;13.530;2023-02-22T14:39:23;17.30;55.00
22383;DHT22;11359;45.802;13.530;2023-02-22T14:41:56;17.30;55.00
22383;DHT22;11359;45.802;13.530;2023-02-22T14:47:16;17.40;55.00
22383;DHT22;11359;45.802;13.530;2023-02-22T14:49:48;17.40;55.00
22383;DHT22;11359;45.802;13.530;2023-02-22T14:52:27;17.40;55.00
22383;DHT22;11359;45.802;13.530;2023-02-22T14:55:03;17.40;55.00
22383;DHT22;11359;45.802;13.530;2023-02-22T15:00:19;17.40;54.80
22383;DHT22;11359;45.802;13.530;2023-02-22T15:02:47;17.40;54.60
22383;DHT22;11359;45.802;13.530;2023-02-22T15:05:16;17.40;54.50
22383;DHT22;11359;45.802;13.530;2023-02-22T15:07:52;17.40;54.50
22383;DHT22;11359;45.802;13.530;2023-02-22T15:10:23;17.40;54.50
22383;DHT22;11359;45.802;13.530;2023-02-22T15:12:59;17.30;54.40
22383;DHT22;11359;45.802;13.530;2023-02-22T15:15:36;17.30;54.30
22383;DHT22;11359;45.802;13.530;2023-02-22T15:18:03;17.30;54.40
22383;DHT22;11359;45.802;13.530;2023-02-22T15:20:34;17.20;54.40
22383;DHT22;11359;45.802;13.530;2023-02-22T15:23:00;17.20;54.40
22383;DHT22;11359;45.802;13.530;2023-02-22T15:25:28;17.20;54.40
22383;DHT22;11359;45.802;13.530;2023-02-22T15:28:01;17.10;54.30
22383;DHT22;11359;45.802;13.530;2023-02-22T15:30:30;17.10;54.30
22383;DHT22;11359;45.802;13.530;2023-02-22T15:33:18;17.10;54.30
22383;DHT22;11359;45.802;13.530;2023-02-22T15:35:54;17.00;54.30
22383;DHT22;11359;45.802;13.530;2023-02-22T15:38:25;17.00;54.30
22383;DHT22;11359;45.802;13.530;2023-02-22T15:41:01;17.00;54.30
22383;DHT22;11359;45.802;13.530;2023-02-22T15:43:27;17.00;54.40
22383;DHT22;11359;45.802;13.530;2023-02-22T15:45:54;17.00;54.40
22383;DHT22;11359;45.802;13.530;2023-02-22T15:48:20;16.90;54.40
22383;DHT22;11359;45.802;13.530;2023-02-22T15:51:08;16.90;54.30
22383;DHT22;11359;45.802;13.530;2023-02-22T15:53:43;16.90;54.40
22383;DHT22;11359;45.802;13.530;2023-02-22T15:56:14;16.80;54.30
22383;DHT22;11359;45.802;13.530;2023-02-22T15:58:43;16.80;54.40
22383;DHT22;11359;45.802;13.530;2023-02-22T16:01:13;16.80;54.30
22383;DHT22;11359;45.802;13.530;2023-02-22T16:03:45;16.80;54.30
22383;DHT22;11359;45.802;13.530;2023-02-22T16:08:51;16.70;54.30
22383;DHT22;11359;45.802;13.530;2023-02-22T16:11:29;16.70;54.20
22383;DHT22;11359;45.802;13.530;2023-02-22T16:14:03;16.70;54.20
22383;DHT22;11359;45.802;13.530;2023-02-22T16:16:36;16.60;54.20
22383;DHT22;11359;45.802;13.530;2023-02-22T16:21:54;16.50;54.10
22383;DHT22;11359;45.802;13.530;2023-02-22T16:24:36;16.50;54.10
22383;DHT22;11359;45.802;13.530;2023-02-22T16:27:15;16.40;54.10
22383;DHT22;11359;45.802;13.530;2023-02-22T16:29:41;16.40;54.80
22383;DHT22;11359;45.802;13.530;2023-02-22T16:32:07;16.40;54.20
22383;DHT22;11359;45.802;13.530;2023-02-22T16:34:34;16.30;54.20
22383;DHT22;11359;45.802;13.530;2023-02-22T16:36:59;16.30;54.20
22383;DHT22;11359;45.802;13.530;2023-02-22T16:39:30;16.30;54.20
22383;DHT22;11359;45.802;13.530;2023-02-22T16:42:05;16.30;54.20
22383;DHT22;11359;45.802;13.530;2023-02-22T16:44:34;16.20;54.20
22383;DHT22;11359;45.802;13.530;2023-02-22T16:47:00;16.20;54.20
22383;DHT22;11359;45.802;13.530;2023-02-22T16:49:26;16.20;54.20
22383;DHT22;11359;45.802;13.530;2023-02-22T16:51:55;16.20;54.30
22383;DHT22;11359;45.802;13.530;2023-02-22T16:54:29;16.10;54.30
22383;DHT22;11359;45.802;13.530;2023-02-22T16:57:00;16.10;54.30
22383;DHT22;11359;45.802;13.530;2023-02-22T16:59:27;16.10;54.40
22383;DHT22;11359;45.802;13.530;2023-02-22T17:01:55;16.10;54.40
22383;DHT22;11359;45.802;13.530;2023-02-22T17:04:24;16.00;54.40
22383;DHT22;11359;45.802;13.530;2023-02-22T17:06:51;16.00;54.30
22383;DHT22;11359;45.802;13.530;2023-02-22T17:09:17;16.00;54.40
22383;DHT22;11359;45.802;13.530;2023-02-22T17:11:48;16.00;54.40
22383;DHT22;11359;45.802;13.530;2023-02-22T17:14:18;16.00;54.40
22383;DHT22;11359;45.802;13.530;2023-02-22T17:16:45;15.90;54.40
22383;DHT22;11359;45.802;13.530;2023-02-22T17:19:22;15.90;54.40
22383;DHT22;11359;45.802;13.530;2023-02-22T17:21:49;15.90;54.40
22383;DHT22;11359;45.802;13.530;2023-02-22T17:24:21;15.90;54.50
22383;DHT22;11359;45.802;13.530;2023-02-22T17:26:48;15.80;54.40
22383;DHT22;11359;45.802;13.530;2023-02-22T17:29:15;15.90;54.50
22383;DHT22;11359;45.802;13.530;2023-02-22T17:31:42;15.80;54.50
22383;DHT22;11359;45.802;13.530;2023-02-22T17:34:08;15.80;55.20
22383;DHT22;11359;45.802;13.530;2023-02-22T17:36:34;15.70;54.60
22383;DHT22;11359;45.802;13.530;2023-02-22T17:39:02;15.70;54.70
22383;DHT22;11359;45.802;13.530;2023-02-22T17:41:28;15.70;54.70
22383;DHT22;11359;45.802;13.530;2023-02-22T17:43:55;15.70;54.80
22383;DHT22;11359;45.802;13.530;2023-02-22T17:46:23;15.70;54.90
22383;DHT22;11359;45.802;13.530;2023-02-22T17:48:50;15.70;54.90
22383;DHT22;11359;45.802;13.530;2023-02-22T17:51:23;15.60;55.00
22383;DHT22;11359;45.802;13.530;2023-02-22T17:53:49;15.70;55.10
22383;DHT22;11359;45.802;13.530;2023-02-22T17:56:16;15.60;55.10
22383;DHT22;11359;45.802;13.530;2023-02-22T17:58:46;15.60;55.10
22383;DHT22;11359;45.802;13.530;2023-02-22T18:01:25;15.60;55.20
22383;DHT22;11359;45.802;13.530;2023-02-22T18:03:57;15.60;55.20
22383;DHT22;11359;45.802;13.530;2023-02-22T18:06:25;15.60;55.20
22383;DHT22;11359;45.802;13.530;2023-02-22T18:08:53;15.60;55.30
22383;DHT22;11359;45.802;13.530;2023-02-22T18:11:19;15.60;55.30
22383;DHT22;11359;45.802;13.530;2023-02-22T18:13:50;15.60;55.30